Time;durP1;ratioP1;P1;durP2;ratioP2;P2;SDS_P1;SDS_P2;PMS_P1;PMS_P2;Temp;Humidity;BMP_temperature;BMP_pressure;BME280_temperature;BME280_humidity;BME280_pressure;Samples;Min_cycle;Max_cycle;Signal;HPM_P1;HPM_P2
2021/10/12 00:01:41;;;;;;;1.58;0.90;;;6.10;99.90;;;;;;4989722;28;20027;-65
2021/10/12 00:04:07;;;;;;;2.97;1.00;;;6.00;99.90;;;;;;4989974;28;20099;-65
2021/10/12 00:06:33;;;;;;;2.50;1.00;;;6.10;99.90;;;;;;4989894;28;20057;-65
2021/10/12 00:08:59;;;;;;;1.15;0.82;;;6.10;99.90;;;;;;4989746;28;20033;-65
2021/10/12 00:11:25;;;;;;;1.30;0.68;;;6.10;99.90;;;;;;4980939;28;20033;-65
2021/10/12 00:13:50;;;;;;;0.80;0.70;;;6.10;99.90;;;;;;4984479;28;20030;-65
2021/10/12 00:16:16;;;;;;;4.95;1.80;;;6.10;99.90;;;;;;4989838;28;20431;-65
2021/10/12 00:18:42;;;;;;;2.03;0.80;;;6.10;99.90;;;;;;4989218;28;20470;-65
2021/10/12 00:21:08;;;;;;;1.67;0.88;;;6.10;99.90;;;;;;4989794;28;20044;-66
2021/10/12 00:23:34;;;;;;;4.38;0.95;;;6.10;99.90;;;;;;4989725;28;20029;-65
2021/10/12 00:25:59;;;;;;;2.65;0.68;;;6.10;99.90;;;;;;4989271;28;20318;-65
2021/10/12 00:28:25;;;;;;;2.75;0.90;;;6.10;99.90;;;;;;4989264;28;20033;-65
2021/10/12 00:30:51;;;;;;;1.80;1.17;;;6.10;99.90;;;;;;4989538;28;20038;-65
2021/10/12 00:33:17;;;;;;;2.22;1.08;;;6.00;99.90;;;;;;4984470;28;20031;-65
2021/10/12 00:35:43;;;;;;;0.73;0.60;;;6.00;99.90;;;;;;4989269;28;20022;-65
2021/10/12 00:38:08;;;;;;;1.75;0.80;;;6.00;99.90;;;;;;4989596;28;20097;-65
2021/10/12 00:40:37;;;;;;;1.17;0.80;;;6.00;99.90;;;;;;4989166;28;20661;-65
2021/10/12 00:43:03;;;;;;;4.35;0.82;;;5.90;99.90;;;;;;4988851;28;20079;-65
2021/10/12 00:45:29;;;;;;;2.55;0.90;;;6.00;99.90;;;;;;4992684;28;20101;-65
2021/10/12 00:48:00;;;;;;;0.98;0.75;;;5.90;99.90;;;;;;4992459;28;20164;-65
2021/10/12 00:50:27;;;;;;;4.07;0.82;;;5.90;99.90;;;;;;4992737;28;20022;-65
2021/10/12 00:52:53;;;;;;;4.25;0.80;;;5.90;99.90;;;;;;4992083;28;20034;-65
2021/10/12 00:55:19;;;;;;;2.72;0.75;;;5.90;99.90;;;;;;4992447;28;20027;-65
2021/10/12 00:57:45;;;;;;;4.30;0.70;;;5.90;99.90;;;;;;4992219;28;20046;-65
2021/10/12 01:00:11;;;;;;;2.85;0.80;;;5.90;99.90;;;;;;4992439;28;20034;-65
2021/10/12 01:02:37;;;;;;;0.88;0.77;;;5.90;99.90;;;;;;4992553;28;20113;-65
2021/10/12 01:05:04;;;;;;;2.45;0.82;;;5.90;99.90;;;;;;4984393;28;20085;-65
2021/10/12 01:07:30;;;;;;;1.27;0.77;;;5.80;99.90;;;;;;4986880;28;20027;-65
2021/10/12 01:09:56;;;;;;;0.70;0.70;;;5.80;99.90;;;;;;4992287;28;20492;-65
2021/10/12 01:12:22;;;;;;;0.82;0.73;;;5.80;99.90;;;;;;4992579;28;20026;-65
2021/10/12 01:14:48;;;;;;;1.33;0.70;;;5.70;99.90;;;;;;4992144;28;20070;-66
2021/10/12 01:17:14;;;;;;;3.80;0.90;;;5.70;99.90;;;;;;4992164;28;20062;-66
2021/10/12 01:19:39;;;;;;;0.90;0.70;;;5.70;99.90;;;;;;4978780;28;20064;-66
2021/10/12 01:22:05;;;;;;;1.52;0.75;;;5.70;99.90;;;;;;4991931;28;20117;-66
2021/10/12 01:24:31;;;;;;;0.70;0.63;;;5.70;99.90;;;;;;4992272;28;20037;-66
2021/10/12 01:26:57;;;;;;;2.97;0.80;;;5.60;99.90;;;;;;4992197;28;20054;-65
2021/10/12 01:29:23;;;;;;;5.32;0.80;;;5.60;99.90;;;;;;4992231;28;20022;-65
2021/10/12 01:31:49;;;;;;;4.22;1.00;;;5.70;99.90;;;;;;4991612;28;20440;-65
2021/10/12 01:34:18;;;;;;;2.15;0.88;;;5.70;99.90;;;;;;4991773;28;20030;-66
2021/10/12 01:36:45;;;;;;;2.13;0.73;;;5.70;99.90;;;;;;4991864;28;20503;-65
2021/10/12 01:39:12;;;;;;;2.88;0.70;;;5.70;99.90;;;;;;4992136;28;20031;-65
2021/10/12 01:41:38;;;;;;;3.55;0.75;;;5.60;99.90;;;;;;4991818;28;20032;-65
2021/10/12 01:44:04;;;;;;;1.27;0.77;;;5.60;99.90;;;;;;4991794;28;20022;-65
2021/10/12 01:46:30;;;;;;;1.48;0.63;;;5.50;99.90;;;;;;4991788;28;20034;-65
2021/10/12 01:48:55;;;;;;;1.15;0.80;;;5.50;99.90;;;;;;4991685;28;20509;-65
2021/10/12 01:51:21;;;;;;;8.93;1.05;;;5.40;99.90;;;;;;4991472;28;20026;-65
2021/10/12 01:53:47;;;;;;;3.65;0.88;;;5.40;99.90;;;;;;4990361;28;20034;-65
2021/10/12 01:56:13;;;;;;;3.13;0.95;;;5.30;99.90;;;;;;4990989;28;20045;-65
2021/10/12 01:58:39;;;;;;;0.85;0.70;;;5.20;99.90;;;;;;4991842;28;20113;-65
2021/10/12 02:01:05;;;;;;;1.90;0.80;;;5.30;99.90;;;;;;4991397;28;20074;-65
2021/10/12 02:03:31;;;;;;;2.38;0.85;;;5.30;99.90;;;;;;4991391;28;20030;-65
2021/10/12 02:05:56;;;;;;;3.78;1.00;;;5.30;99.90;;;;;;4991525;28;20030;-65
2021/10/12 02:08:22;;;;;;;6.10;0.80;;;5.30;99.90;;;;;;4991456;28;20457;-65
2021/10/12 02:10:48;;;;;;;4.70;0.98;;;5.30;99.90;;;;;;4991228;28;20034;-66
2021/10/12 02:13:14;;;;;;;1.23;0.90;;;5.20;99.90;;;;;;4991239;28;20027;-66
2021/10/12 02:15:39;;;;;;;1.75;0.63;;;5.10;99.90;;;;;;4991326;28;20065;-66
2021/10/12 02:18:05;;;;;;;1.90;0.95;;;5.00;99.90;;;;;;4977292;28;20700;-65
2021/10/12 02:20:31;;;;;;;0.98;0.90;;;5.00;99.90;;;;;;4991291;28;20073;-66
2021/10/12 02:22:57;;;;;;;0.90;0.70;;;5.00;99.90;;;;;;4991130;28;20037;-66
2021/10/12 02:54:28;;;;;;;2.33;0.70;;;4.80;99.90;;;;;;4990497;28;20555;-66
2021/10/12 02:56:53;;;;;;;1.35;0.70;;;4.80;99.90;;;;;;4990347;28;20054;-66
2021/10/12 02:59:19;;;;;;;3.50;1.00;;;4.70;99.90;;;;;;4990686;28;20022;-65
2021/10/12 03:01:45;;;;;;;3.65;0.80;;;4.70;99.90;;;;;;4990492;28;20029;-65
2021/10/12 03:04:11;;;;;;;0.95;0.80;;;4.70;99.90;;;;;;4990656;28;20026;-65
2021/10/12 03:06:37;;;;;;;2.53;0.98;;;4.70;99.90;;;;;;4989657;28;20573;-65
2021/10/12 03:09:03;;;;;;;2.65;0.80;;;4.70;99.90;;;;;;4990374;28;20109;-65
2021/10/12 03:11:28;;;;;;;1.17;0.70;;;4.70;99.90;;;;;;4990300;28;20027;-65
2021/10/12 03:13:54;;;;;;;2.38;0.90;;;4.70;99.90;;;;;;4990465;28;20489;-65
2021/10/12 03:16:21;;;;;;;2.35;0.80;;;4.70;99.90;;;;;;4990499;28;20022;-65
2021/10/12 03:18:47;;;;;;;0.70;0.70;;;4.60;99.90;;;;;;4990169;28;20038;-65
2021/10/12 03:21:14;;;;;;;1.65;0.70;;;4.60;99.90;;;;;;4990271;28;20027;-65
2021/10/12 03:23:40;;;;;;;1.13;0.70;;;4.60;99.90;;;;;;4990066;28;20034;-65
2021/10/12 03:26:06;;;;;;;1.65;0.90;;;4.60;99.90;;;;;;4990188;28;20029;-65
2021/10/12 03:28:31;;;;;;;1.65;0.80;;;4.60;99.90;;;;;;4990085;28;20036;-66
2021/10/12 03:30:57;;;;;;;0.82;0.82;;;4.60;99.90;;;;;;4990484;28;20022;-65
2021/10/12 03:33:23;;;;;;;1.17;0.70;;;4.60;99.90;;;;;;4990121;28;20022;-65
2021/10/12 03:36:00;;;;;;;0.93;0.80;;;4.60;99.90;;;;;;4989899;28;20335;-66
2021/10/12 03:38:28;;;;;;;1.10;0.68;;;4.60;99.90;;;;;;4989979;28;20166;-68
2021/10/12 03:40:55;;;;;;;1.65;0.90;;;4.60;99.90;;;;;;4989984;28;20027;-66
2021/10/12 03:43:21;;;;;;;0.70;0.70;;;4.60;99.90;;;;;;4990095;28;20053;-66
2021/10/12 03:45:47;;;;;;;0.80;0.75;;;4.80;99.90;;;;;;4990075;28;20390;-66
2021/10/12 03:48:14;;;;;;;1.55;0.80;;;4.90;99.90;;;;;;4989708;28;20022;-67
2021/10/12 03:50:39;;;;;;;1.65;0.80;;;4.90;99.90;;;;;;4989401;28;20496;-67
2021/10/12 03:53:05;;;;;;;0.65;0.65;;;4.90;99.90;;;;;;4989654;28;20038;-67
2021/10/12 03:55:31;;;;;;;0.70;0.70;;;4.80;99.90;;;;;;4989908;28;20102;-68
2021/10/12 03:57:57;;;;;;;2.63;0.90;;;4.70;99.90;;;;;;4989665;28;20191;-68
2021/10/12 04:00:23;;;;;;;2.53;0.70;;;4.70;99.90;;;;;;4989581;28;20118;-68
2021/10/12 04:02:49;;;;;;;0.80;0.60;;;4.70;99.90;;;;;;4989877;28;20022;-68
2021/10/12 04:05:15;;;;;;;2.72;0.70;;;4.70;99.90;;;;;;4989673;28;20401;-68
2021/10/12 04:07:41;;;;;;;0.85;0.70;;;4.60;99.90;;;;;;4989618;28;20022;-68
2021/10/12 04:10:08;;;;;;;0.82;0.70;;;4.70;99.90;;;;;;4989747;28;20113;-68
2021/10/12 04:12:34;;;;;;;1.73;1.10;;;4.60;99.90;;;;;;4989780;28;20034;-68
2021/10/12 04:14:59;;;;;;;1.13;0.88;;;4.50;99.90;;;;;;4989751;28;20371;-67
2021/10/12 04:17:25;;;;;;;0.90;0.80;;;4.50;99.90;;;;;;4987953;28;20496;-67
2021/10/12 04:19:51;;;;;;;5.80;0.88;;;4.50;99.90;;;;;;4989481;28;20150;-67
2021/10/12 04:22:16;;;;;;;5.38;0.70;;;4.50;99.90;;;;;;4986979;28;20109;-67
2021/10/12 04:24:42;;;;;;;3.72;1.00;;;4.50;99.90;;;;;;4985303;28;20038;-69
2021/10/12 04:27:08;;;;;;;2.67;0.90;;;4.50;99.90;;;;;;4989258;28;20143;-69
2021/10/12 04:29:34;;;;;;;4.30;0.73;;;4.50;99.90;;;;;;4989203;28;20048;-70
2021/10/12 04:32:00;;;;;;;1.20;1.00;;;4.50;99.90;;;;;;4989475;28;20034;-69
2021/10/12 04:34:27;;;;;;;4.10;1.00;;;4.50;99.90;;;;;;4989189;28;20035;-67
2021/10/12 04:36:54;;;;;;;0.80;0.75;;;4.40;99.90;;;;;;4989216;28;20034;-67
2021/10/12 04:39:20;;;;;;;2.53;0.80;;;4.40;99.90;;;;;;4988835;28;20057;-67
2021/10/12 04:41:46;;;;;;;2.00;0.93;;;4.40;99.90;;;;;;4988560;28;20110;-67
2021/10/12 04:44:12;;;;;;;4.38;0.80;;;4.40;99.90;;;;;;4987996;28;20026;-67
2021/10/12 04:46:39;;;;;;;1.50;0.77;;;4.40;99.90;;;;;;4979579;28;20109;-67
2021/10/12 04:49:06;;;;;;;1.88;0.95;;;4.40;99.90;;;;;;4988788;28;20474;-67
2021/10/12 04:51:32;;;;;;;2.10;0.77;;;4.40;99.90;;;;;;4988957;28;20144;-67
2021/10/12 04:53:57;;;;;;;1.02;0.70;;;4.40;99.90;;;;;;4988581;28;20039;-68
2021/10/12 04:56:23;;;;;;;0.60;0.60;;;4.40;99.90;;;;;;4988411;28;20054;-67
2021/10/12 04:58:49;;;;;;;2.50;0.80;;;4.40;99.90;;;;;;4989036;28;20038;-67
2021/10/12 05:01:15;;;;;;;1.00;0.73;;;4.40;99.90;;;;;;4988807;28;20405;-66
2021/10/12 05:03:40;;;;;;;1.48;0.75;;;4.40;99.90;;;;;;4986419;28;20066;-66
2021/10/12 05:06:06;;;;;;;0.93;0.85;;;4.40;99.90;;;;;;4988921;28;20030;-67
2021/10/12 05:08:33;;;;;;;1.25;0.80;;;4.30;99.90;;;;;;4983908;28;20129;-68
2021/10/12 05:10:59;;;;;;;2.22;0.80;;;4.20;99.90;;;;;;4988788;28;20027;-68
2021/10/12 05:13:25;;;;;;;2.28;0.60;;;4.20;99.90;;;;;;4988651;28;20037;-68
2021/10/12 05:15:51;;;;;;;0.93;0.80;;;4.20;99.90;;;;;;4975753;28;20065;-68
2021/10/12 05:18:22;;;;;;;1.60;0.90;;;4.20;99.90;;;;;;4988477;28;20501;-68
2021/10/12 05:20:49;;;;;;;2.08;1.20;;;4.20;99.90;;;;;;4988752;28;20429;-69
2021/10/12 05:23:15;;;;;;;3.47;0.80;;;4.30;99.90;;;;;;4988599;28;20057;-68
2021/10/12 05:25:41;;;;;;;0.80;0.80;;;5.60;99.90;;;;;;4988856;28;20045;-68
2021/10/12 05:28:10;;;;;;;1.63;0.70;;;5.30;99.90;;;;;;4988536;28;20037;-68
2021/10/12 05:30:40;;;;;;;1.83;0.68;;;5.00;99.90;;;;;;4990746;28;20022;-68
2021/10/12 05:33:12;;;;;;;0.80;0.80;;;4.80;99.90;;;;;;4989614;28;20489;-68
2021/10/12 05:35:38;;;;;;;0.60;0.60;;;4.60;99.90;;;;;;4981234;28;20125;-68
2021/10/12 05:38:04;;;;;;;1.80;0.70;;;4.50;99.90;;;;;;4991705;28;20105;-68
2021/10/12 05:40:30;;;;;;;1.05;0.60;;;4.50;99.90;;;;;;4991987;28;20033;-68
2021/10/12 05:42:55;;;;;;;0.70;0.70;;;4.50;99.90;;;;;;4991662;28;20456;-67
2021/10/12 05:45:21;;;;;;;2.75;0.80;;;4.40;99.90;;;;;;4991525;28;20031;-68
2021/10/12 05:47:47;;;;;;;2.33;0.80;;;4.50;99.90;;;;;;4991230;28;20088;-68
2021/10/12 05:50:13;;;;;;;1.15;1.05;;;4.90;99.90;;;;;;4991778;28;20394;-68
2021/10/12 05:52:41;;;;;;;3.45;0.98;;;4.80;99.90;;;;;;4990941;28;20030;-68
2021/10/12 05:55:13;;;;;;;0.68;0.68;;;4.70;99.90;;;;;;4991279;28;20042;-68
2021/10/12 05:57:52;;;;;;;2.85;0.80;;;4.60;99.90;;;;;;4987428;28;20050;-67
2021/10/12 06:00:18;;;;;;;0.55;0.55;;;4.50;99.90;;;;;;4983595;28;20122;-67
2021/10/12 06:02:44;;;;;;;1.48;0.80;;;4.50;99.90;;;;;;4977398;28;20098;-67
2021/10/12 06:05:09;;;;;;;1.33;0.70;;;4.50;99.90;;;;;;4990943;28;20061;-67
2021/10/12 06:07:35;;;;;;;3.75;0.70;;;4.40;99.90;;;;;;4988885;28;20019;-67
2021/10/12 06:10:01;;;;;;;3.25;0.77;;;4.40;99.90;;;;;;4984694;28;20022;-67
2021/10/12 06:12:26;;;;;;;1.02;0.95;;;4.40;99.90;;;;;;4984446;28;20030;-67
2021/10/12 06:14:52;;;;;;;3.03;0.80;;;4.30;99.90;;;;;;4991113;28;20039;-67
2021/10/12 06:17:18;;;;;;;0.80;0.80;;;4.40;99.90;;;;;;4991344;28;20023;-67
2021/10/12 06:19:44;;;;;;;6.65;1.00;;;4.30;99.90;;;;;;4989232;28;20026;-67
2021/10/12 06:22:09;;;;;;;2.63;0.82;;;4.40;99.90;;;;;;4983525;28;20427;-66
2021/10/12 06:24:35;;;;;;;2.85;0.80;;;4.40;99.90;;;;;;4983893;28;20117;-67
2021/10/12 06:27:01;;;;;;;1.60;0.75;;;4.50;99.90;;;;;;4989537;28;20022;-68
2021/10/12 06:29:27;;;;;;;4.38;1.00;;;4.50;99.90;;;;;;4990915;28;20088;-68
2021/10/12 06:31:52;;;;;;;1.40;0.70;;;4.60;99.90;;;;;;4991237;28;20041;-68
2021/10/12 06:34:18;;;;;;;1.33;1.00;;;4.80;99.90;;;;;;4982666;28;20382;-68
2021/10/12 06:36:44;;;;;;;2.33;0.90;;;5.30;99.90;;;;;;4986493;28;20018;-68
2021/10/12 06:39:09;;;;;;;1.25;0.88;;;5.20;99.90;;;;;;4988451;28;20431;-68
2021/10/12 06:41:35;;;;;;;1.73;0.80;;;5.20;99.90;;;;;;4989764;28;20022;-68
2021/10/12 06:44:01;;;;;;;1.55;0.90;;;5.20;99.90;;;;;;4990802;28;20118;-68
2021/10/12 06:46:26;;;;;;;3.00;0.93;;;5.20;99.90;;;;;;4990683;28;20474;-68
2021/10/12 06:48:52;;;;;;;1.10;1.00;;;5.30;99.90;;;;;;4978630;28;20049;-68
2021/10/12 06:51:18;;;;;;;5.18;1.35;;;5.30;99.90;;;;;;4989171;28;20352;-68
2021/10/12 06:53:46;;;;;;;2.08;1.20;;;5.30;99.90;;;;;;4990985;28;20129;-68
2021/10/12 06:56:12;;;;;;;2.35;1.00;;;5.30;99.90;;;;;;4983387;28;20441;-67
2021/10/12 06:58:38;;;;;;;2.47;1.20;;;5.30;99.90;;;;;;4971876;28;20092;-68
2021/10/12 07:01:03;;;;;;;5.55;1.25;;;5.30;99.90;;;;;;4984213;28;20015;-68
2021/10/12 07:03:29;;;;;;;2.03;1.20;;;5.40;99.90;;;;;;4971040;28;20049;-68
2021/10/12 07:05:55;;;;;;;1.60;1.00;;;5.40;99.90;;;;;;4981728;28;20031;-68
2021/10/12 07:08:20;;;;;;;1.42;1.00;;;5.40;99.90;;;;;;4987892;28;20063;-68
2021/10/12 07:10:46;;;;;;;1.60;0.90;;;5.40;99.90;;;;;;4990321;28;20030;-68
2021/10/12 07:13:13;;;;;;;2.15;0.80;;;5.40;99.90;;;;;;4987818;28;20057;-68
2021/10/12 07:15:41;;;;;;;1.77;1.08;;;5.40;99.90;;;;;;4990030;28;20371;-68
2021/10/12 07:18:07;;;;;;;0.75;0.73;;;5.40;99.90;;;;;;4989967;28;20038;-68
2021/10/12 07:20:33;;;;;;;1.38;0.80;;;5.40;99.90;;;;;;4988457;28;20026;-68
2021/10/12 07:22:59;;;;;;;1.85;0.85;;;5.40;99.90;;;;;;4989379;28;20018;-67
2021/10/12 07:25:24;;;;;;;0.90;0.90;;;5.40;99.90;;;;;;4990159;28;20037;-67
2021/10/12 07:27:50;;;;;;;1.92;0.82;;;5.40;99.90;;;;;;4988047;28;20374;-68
2021/10/12 07:30:16;;;;;;;1.27;0.80;;;5.40;99.90;;;;;;4989941;28;20048;-68
2021/10/12 07:32:41;;;;;;;1.08;0.73;;;5.50;99.90;;;;;;4989796;28;20018;-68
2021/10/12 07:35:08;;;;;;;2.13;0.70;;;5.50;99.90;;;;;;4989822;28;20030;-68
2021/10/12 07:37:35;;;;;;;0.70;0.70;;;5.50;99.90;;;;;;4988578;28;20444;-68
2021/10/12 07:40:01;;;;;;;2.45;1.00;;;5.50;99.90;;;;;;4980059;28;20031;-68
2021/10/12 07:42:27;;;;;;;0.80;0.80;;;5.60;99.90;;;;;;4986186;28;20557;-68
2021/10/12 07:44:52;;;;;;;1.15;0.68;;;5.60;99.90;;;;;;4990293;28;20117;-68
2021/10/12 07:47:20;;;;;;;0.80;0.70;;;5.60;99.90;;;;;;4976253;28;20022;-68
2021/10/12 07:49:48;;;;;;;0.88;0.80;;;5.70;99.90;;;;;;4987100;28;20035;-68
2021/10/12 07:52:14;;;;;;;1.50;0.90;;;5.70;99.90;;;;;;4985859;28;20482;-68
2021/10/12 07:54:51;;;;;;;1.50;0.95;;;5.80;99.90;;;;;;4979673;28;20035;-68
2021/10/12 07:57:18;;;;;;;2.05;0.70;;;5.80;99.90;;;;;;4987471;28;20050;-68
2021/10/12 07:59:44;;;;;;;1.33;1.08;;;5.80;99.90;;;;;;4975742;28;20099;-68
2021/10/12 08:02:16;;;;;;;1.77;0.90;;;5.90;99.90;;;;;;4989703;28;20023;-68
2021/10/12 08:04:42;;;;;;;2.45;0.93;;;5.90;99.90;;;;;;4981969;28;20451;-68
2021/10/12 08:07:08;;;;;;;1.40;1.30;;;5.90;99.90;;;;;;4983840;28;20026;-68
2021/10/12 08:09:35;;;;;;;5.35;1.00;;;5.90;99.90;;;;;;4983311;28;20137;-68
2021/10/12 08:12:02;;;;;;;0.80;0.80;;;6.00;99.90;;;;;;4982455;28;20039;-67
2021/10/12 08:14:29;;;;;;;1.08;0.68;;;6.00;99.90;;;;;;4989645;28;20121;-68
2021/10/12 08:16:54;;;;;;;1.10;0.93;;;6.10;99.90;;;;;;4989317;28;20370;-65
2021/10/12 08:19:20;;;;;;;1.60;0.77;;;6.20;99.90;;;;;;4982304;28;20023;-66
2021/10/12 08:21:46;;;;;;;0.63;0.52;;;6.20;99.90;;;;;;4986168;28;20150;-66
2021/10/12 08:24:12;;;;;;;0.70;0.70;;;6.20;99.90;;;;;;4989337;28;20030;-67
2021/10/12 08:26:39;;;;;;;1.95;1.02;;;6.30;99.90;;;;;;4988322;28;20046;-67
2021/10/12 08:29:06;;;;;;;2.42;0.82;;;7.10;99.90;;;;;;4989522;28;20087;-67
2021/10/12 08:31:31;;;;;;;0.70;0.70;;;7.40;99.90;;;;;;4989421;28;20496;-67
2021/10/12 08:33:57;;;;;;;2.25;0.80;;;7.20;99.90;;;;;;4989211;28;20044;-68
2021/10/12 08:36:23;;;;;;;1.27;0.80;;;6.90;99.90;;;;;;4989393;28;20058;-68
2021/10/12 08:38:53;;;;;;;1.25;0.90;;;6.80;99.90;;;;;;4989041;28;20101;-68
2021/10/12 08:41:23;;;;;;;0.82;0.70;;;6.70;99.90;;;;;;4989260;28;20478;-68
2021/10/12 08:43:49;;;;;;;2.03;0.60;;;6.70;99.90;;;;;;4978872;28;20042;-68
2021/10/12 08:46:15;;;;;;;2.15;0.80;;;7.70;99.90;;;;;;4987812;28;20030;-69
2021/10/12 08:48:41;;;;;;;0.82;0.60;;;7.60;99.90;;;;;;4983440;28;20106;-68
2021/10/12 08:51:07;;;;;;;3.25;0.90;;;7.40;99.90;;;;;;4985897;28;20110;-68
2021/10/12 08:53:34;;;;;;;1.00;0.80;;;7.20;99.90;;;;;;4989004;28;20385;-68
2021/10/12 08:56:01;;;;;;;2.13;0.70;;;7.10;99.90;;;;;;4988683;28;20035;-68
2021/10/12 08:58:27;;;;;;;2.78;0.70;;;7.00;99.90;;;;;;4988739;28;20100;-68
2021/10/12 09:01:22;;;;;;;1.08;0.75;;;7.00;99.90;;;;;;4984536;28;20027;-68
2021/10/12 09:04:02;;;;;;;0.60;0.60;;;7.00;99.90;;;;;;4996946;28;20524;-68
2021/10/12 09:06:30;;;;;;;1.30;0.70;;;7.00;99.90;;;;;;4985128;28;20054;-68
2021/10/12 09:09:14;;;;;;;0.75;0.75;;;7.00;99.90;;;;;;4988539;28;20054;-68
2021/10/12 09:11:41;;;;;;;1.63;0.60;;;7.00;99.90;;;;;;4992256;28;20394;-68
2021/10/12 09:14:11;;;;;;;1.05;0.60;;;6.90;99.90;;;;;;4982841;28;20343;-68
2021/10/12 09:16:40;;;;;;;1.80;0.68;;;7.00;99.90;;;;;;4991582;28;20031;-68
2021/10/12 09:19:08;;;;;;;0.85;0.60;;;7.00;99.90;;;;;;4992119;28;20107;-68
2021/10/12 09:21:47;;;;;;;0.93;0.65;;;7.00;99.90;;;;;;4992175;28;20030;-68
2021/10/12 09:24:17;;;;;;;0.82;0.65;;;7.10;99.90;;;;;;4989629;28;20034;-69
2021/10/12 09:26:47;;;;;;;1.15;0.75;;;7.10;99.90;;;;;;4992253;28;20110;-68
2021/10/12 09:29:24;;;;;;;1.35;0.70;;;7.20;99.90;;;;;;4991688;28;20054;-68
2021/10/12 09:31:50;;;;;;;2.30;0.50;;;7.20;99.90;;;;;;4991601;28;20029;-68
2021/10/12 09:34:18;;;;;;;0.45;0.45;;;7.20;99.90;;;;;;4991717;28;20073;-68
2021/10/12 09:36:48;;;;;;;3.15;0.73;;;7.30;99.90;;;;;;4991804;28;20026;-68
2021/10/12 09:39:18;;;;;;;0.70;0.63;;;7.30;99.90;;;;;;4992033;28;20046;-68
2021/10/12 09:41:45;;;;;;;0.60;0.60;;;7.40;99.90;;;;;;4991818;28;20032;-68
2021/10/12 09:44:16;;;;;;;0.57;0.47;;;7.40;99.90;;;;;;4984062;28;20381;-68
2021/10/12 09:46:47;;;;;;;1.35;0.60;;;7.40;99.90;;;;;;4988390;28;20053;-68
2021/10/12 09:49:21;;;;;;;0.50;0.50;;;7.50;99.90;;;;;;4981812;28;20431;-68
2021/10/12 09:51:57;;;;;;;0.93;0.57;;;7.50;99.90;;;;;;4989573;28;20027;-68
2021/10/12 09:54:24;;;;;;;0.60;0.60;;;7.60;99.90;;;;;;4991321;28;20126;-68
2021/10/12 09:56:50;;;;;;;2.17;0.52;;;7.60;99.90;;;;;;4990927;28;20050;-68
2021/10/12 09:59:17;;;;;;;0.88;0.70;;;7.70;99.90;;;;;;4991363;28;20018;-68
2021/10/12 10:01:46;;;;;;;1.00;0.70;;;7.80;99.90;;;;;;4988323;28;20097;-68
2021/10/12 10:04:17;;;;;;;2.78;0.90;;;7.90;99.90;;;;;;4990769;28;20026;-68
2021/10/12 10:06:44;;;;;;;1.20;1.10;;;7.90;99.90;;;;;;4988359;28;20041;-68
2021/10/12 10:09:12;;;;;;;1.70;1.40;;;8.00;99.90;;;;;;4989456;28;20079;-67
2021/10/12 10:11:38;;;;;;;2.50;0.85;;;8.00;99.90;;;;;;4977487;28;20053;-66
2021/10/12 10:14:06;;;;;;;1.88;0.70;;;8.00;99.90;;;;;;4991115;28;20031;-67
2021/10/12 10:16:33;;;;;;;2.58;0.60;;;8.10;99.90;;;;;;4990711;28;20027;-67
2021/10/12 10:19:00;;;;;;;0.73;0.68;;;8.10;99.90;;;;;;4979560;28;20034;-68
2021/10/12 10:21:26;;;;;;;1.40;0.50;;;8.20;99.90;;;;;;4991084;28;20033;-67
2021/10/12 10:24:11;;;;;;;2.25;0.50;;;8.20;99.90;;;;;;4973233;28;20030;-67
2021/10/12 10:26:39;;;;;;;0.50;0.50;;;8.20;99.90;;;;;;4979198;28;20030;-68
2021/10/12 10:29:23;;;;;;;1.50;0.70;;;8.20;99.90;;;;;;4991174;28;20113;-68
2021/10/12 10:31:54;;;;;;;0.93;0.80;;;8.30;99.90;;;;;;4979602;28;20105;-68
2021/10/12 10:34:36;;;;;;;0.75;0.60;;;8.30;99.90;;;;;;4990699;28;20042;-68
2021/10/12 10:37:17;;;;;;;4.63;1.20;;;8.40;99.90;;;;;;4985984;28;20019;-68
2021/10/12 10:39:46;;;;;;;1.15;0.73;;;8.40;99.90;;;;;;4985048;28;20430;-68
2021/10/12 10:42:27;;;;;;;0.80;0.75;;;8.40;99.90;;;;;;4986464;28;20083;-68
2021/10/12 10:45:00;;;;;;;4.63;1.48;;;8.40;99.90;;;;;;4990878;28;20045;-68
2021/10/12 10:47:41;;;;;;;3.22;0.95;;;8.50;99.90;;;;;;4985251;28;20398;-68
2021/10/12 10:50:15;;;;;;;1.08;0.77;;;8.50;99.90;;;;;;4971043;28;20041;-68
2021/10/12 10:52:48;;;;;;;2.60;0.95;;;8.50;99.90;;;;;;4984882;28;20022;-69
2021/10/12 10:55:27;;;;;;;1.00;0.90;;;8.50;99.90;;;;;;4990280;28;20034;-69
2021/10/12 10:58:20;;;;;;;2.20;0.52;;;8.50;99.90;;;;;;4990389;28;20460;-69
2021/10/12 11:00:48;;;;;;;1.58;0.60;;;8.50;99.90;;;;;;4990362;28;20026;-69
2021/10/12 11:03:28;;;;;;;0.98;0.70;;;8.50;99.90;;;;;;4990354;28;20025;-69
2021/10/12 11:05:55;;;;;;;;;;;8.50;99.90;;;;;;4991137;28;20026;-69
2021/10/12 11:08:29;;;;;;;0.82;0.60;;;8.50;99.90;;;;;;4990703;28;19909;-69
2021/10/12 11:11:08;;;;;;;0.40;0.38;;;8.60;99.90;;;;;;4990567;28;20033;-67
2021/10/12 11:13:41;;;;;;;1.70;0.57;;;8.60;99.90;;;;;;4990804;28;20129;-69
2021/10/12 11:16:17;;;;;;;0.57;0.57;;;8.50;99.90;;;;;;4990288;28;20110;-69
2021/10/12 11:18:45;;;;;;;1.65;0.40;;;8.50;99.90;;;;;;4990343;28;20034;-69
2021/10/12 11:21:13;;;;;;;0.50;0.50;;;8.50;99.90;;;;;;4988825;28;20105;-69
2021/10/12 11:23:41;;;;;;;0.82;0.57;;;8.50;99.90;;;;;;4990504;28;20042;-69
2021/10/12 11:26:30;;;;;;;0.60;0.50;;;8.50;99.90;;;;;;4990514;28;20038;-69
2021/10/12 11:28:58;;;;;;;0.47;0.47;;;8.60;99.90;;;;;;4989321;28;20080;-69
2021/10/12 11:31:29;;;;;;;1.20;0.60;;;8.60;99.90;;;;;;4989999;28;20022;-69
2021/10/12 11:34:01;;;;;;;1.27;0.55;;;8.60;99.90;;;;;;4989746;28;20482;-69
2021/10/12 11:36:29;;;;;;;0.75;0.40;;;8.60;99.90;;;;;;4990016;28;20037;-69
2021/10/12 11:38:58;;;;;;;0.60;0.50;;;8.70;99.90;;;;;;4989685;28;20038;-69
2021/10/12 11:41:28;;;;;;;0.50;0.50;;;8.70;99.90;;;;;;4990106;28;20053;-69
2021/10/12 11:43:59;;;;;;;1.40;0.60;;;8.70;99.90;;;;;;4989846;28;20114;-69
2021/10/12 11:46:28;;;;;;;0.52;0.50;;;8.80;99.90;;;;;;4980626;28;20494;-70
2021/10/12 11:48:54;;;;;;;0.32;0.32;;;9.20;99.90;;;;;;4990019;28;20126;-69
2021/10/12 11:51:25;;;;;;;0.88;0.50;;;9.40;99.90;;;;;;4989621;28;20025;-69
2021/10/12 11:53:53;;;;;;;1.38;0.60;;;9.30;99.90;;;;;;4989838;28;20056;-69
2021/10/12 11:56:20;;;;;;;1.23;0.43;;;9.30;99.90;;;;;;4981302;28;20470;-69
2021/10/12 11:58:47;;;;;;;1.17;0.40;;;9.20;99.90;;;;;;4979258;28;20428;-69
2021/10/12 12:01:28;;;;;;;2.53;0.40;;;9.10;99.90;;;;;;4989705;28;20050;-69
2021/10/12 12:03:55;;;;;;;1.05;0.40;;;9.10;99.90;;;;;;4989616;28;20087;-69
2021/10/12 12:06:26;;;;;;;1.27;0.52;;;9.00;99.90;;;;;;4977996;28;20031;-69
2021/10/12 12:08:55;;;;;;;0.88;0.57;;;9.00;99.90;;;;;;4988548;28;20487;-69
2021/10/12 12:11:28;;;;;;;2.25;0.40;;;9.00;99.90;;;;;;4985871;28;20483;-69
2021/10/12 12:13:56;;;;;;;0.68;0.43;;;9.00;99.90;;;;;;4981026;28;20034;-69
2021/10/12 12:16:23;;;;;;;0.90;0.40;;;9.00;99.90;;;;;;4989441;28;20027;-69
2021/10/12 12:18:49;;;;;;;3.22;1.15;;;9.00;99.90;;;;;;4989694;28;20109;-71
2021/10/12 12:21:29;;;;;;;2.13;0.50;;;9.10;99.90;;;;;;4989106;28;20533;-69
2021/10/12 12:23:57;;;;;;;0.90;0.50;;;9.80;99.90;;;;;;4988966;28;20031;-69
2021/10/12 12:26:27;;;;;;;2.58;0.50;;;9.70;99.90;;;;;;4988896;28;20030;-69
2021/10/12 12:28:53;;;;;;;0.88;0.60;;;9.50;99.90;;;;;;4989051;28;20022;-69
2021/10/12 12:31:18;;;;;;;0.40;0.40;;;9.40;99.90;;;;;;4989135;28;20259;-69
2021/10/12 12:33:47;;;;;;;0.88;0.50;;;9.30;99.90;;;;;;4989483;28;20121;-69
2021/10/12 12:36:13;;;;;;;1.00;0.40;;;9.20;99.90;;;;;;4989045;28;20478;-69
2021/10/12 12:38:41;;;;;;;0.20;0.20;;;9.20;99.90;;;;;;4989421;28;20163;-69
2021/10/12 12:41:20;;;;;;;0.40;0.40;;;9.10;99.90;;;;;;4992340;28;20550;-69
2021/10/12 12:43:57;;;;;;;0.40;0.40;;;9.00;99.90;;;;;;4975157;28;20023;-69
2021/10/12 12:46:24;;;;;;;1.30;0.50;;;9.00;99.90;;;;;;4984071;28;20030;-69
2021/10/12 12:49:04;;;;;;;0.45;0.40;;;8.90;99.90;;;;;;4992763;28;20022;-69
2021/10/12 12:51:31;;;;;;;3.03;0.40;;;8.90;99.90;;;;;;4988203;28;20403;-69
2021/10/12 12:53:57;;;;;;;1.38;0.60;;;8.90;99.90;;;;;;4992067;28;20038;-69
2021/10/12 12:56:34;;;;;;;10.60;0.98;;;8.90;99.90;;;;;;4992228;28;20034;-70
2021/10/12 12:59:05;;;;;;;0.75;0.40;;;9.10;99.90;;;;;;4987260;28;20579;-69
2021/10/12 13:01:31;;;;;;;5.07;0.77;;;9.40;99.90;;;;;;4992026;28;20034;-66
2021/10/12 13:03:57;;;;;;;18.00;1.00;;;9.50;99.90;;;;;;4989729;28;20034;-67
2021/10/12 13:06:23;;;;;;;2.38;0.55;;;9.70;99.90;;;;;;4991716;28;20025;-66
2021/10/12 13:08:54;;;;;;;0.75;0.40;;;9.90;99.90;;;;;;4991634;28;20541;-66
2021/10/12 13:11:33;;;;;;;0.57;0.50;;;10.00;99.90;;;;;;4991157;28;20092;-67
2021/10/12 13:14:00;;;;;;;1.70;0.50;;;10.00;99.90;;;;;;4989643;28;20026;-66
2021/10/12 13:16:26;;;;;;;0.50;0.40;;;9.90;99.90;;;;;;4991665;28;20049;-66
2021/10/12 13:18:52;;;;;;;0.73;0.40;;;9.90;99.90;;;;;;4991236;28;20474;-66
2021/10/12 13:21:18;;;;;;;0.40;0.40;;;9.70;99.90;;;;;;4991420;28;20026;-66
2021/10/12 13:23:44;;;;;;;0.57;0.30;;;9.60;99.90;;;;;;4991779;28;20026;-66
2021/10/12 13:26:09;;;;;;;1.20;0.47;;;9.60;99.90;;;;;;4991377;28;20096;-66
2021/10/12 13:28:35;;;;;;;0.80;0.40;;;9.60;99.90;;;;;;4991937;28;20018;-66
2021/10/12 13:31:01;;;;;;;1.35;0.50;;;9.60;99.90;;;;;;4985216;28;20105;-66